createdAt,value
2018-05-31T00:41:38.558Z,17.36
2018-05-31T00:44:06.215Z,17.37
2018-05-31T00:46:33.783Z,17.38
2018-05-31T00:49:01.567Z,17.38
2018-05-31T00:51:31.976Z,17.39
2018-05-31T00:57:00.680Z,17.39
2018-05-31T00:59:36.135Z,17.38
2018-05-31T01:02:03.767Z,17.38
2018-05-31T01:04:31.395Z,17.37
2018-05-31T01:06:59.860Z,17.37
2018-05-31T01:09:28.965Z,17.37
2018-05-31T01:11:59.145Z,17.37
2018-05-31T01:14:27.430Z,17.36
2018-05-31T01:16:55.010Z,17.36
2018-05-31T01:19:22.782Z,17.36
2018-05-31T01:21:50.375Z,17.35
2018-05-31T01:24:18.063Z,17.35
2018-05-31T01:26:45.735Z,17.35
2018-05-31T01:29:13.311Z,17.35
2018-05-31T01:31:40.975Z,17.35
2018-05-31T01:34:08.660Z,17.35
2018-05-31T01:36:36.250Z,17.35
2018-05-31T01:39:03.836Z,17.34
2018-05-31T01:41:31.560Z,17.35
2018-05-31T01:43:59.315Z,17.35
2018-05-31T01:46:27.007Z,17.35
2018-05-31T01:48:54.583Z,17.35
2018-05-31T01:51:22.175Z,17.35
2018-05-31T01:53:49.715Z,17.34
2018-05-31T01:56:17.266Z,17.34
2018-05-31T01:58:44.879Z,17.35
2018-05-31T02:06:21.243Z,17.35
2018-05-31T02:11:22.106Z,17.34
2018-05-31T02:13:49.647Z,17.35
2018-05-31T02:16:17.199Z,17.35
2018-05-31T02:18:44.844Z,17.36
2018-05-31T02:23:45.405Z,17.37
2018-05-31T02:26:13.157Z,17.37
2018-05-31T02:28:40.687Z,17.37
2018-05-31T02:31:08.253Z,17.38
2018-05-31T02:33:37.764Z,17.39
2018-05-31T02:36:05.427Z,17.38
2018-05-31T02:38:32.960Z,17.39
2018-05-31T02:41:00.707Z,17.39
2018-05-31T02:43:28.481Z,17.40
2018-05-31T02:45:56.019Z,17.40
2018-05-31T02:48:23.578Z,17.40
2018-05-31T02:50:51.249Z,17.40
2018-05-31T02:53:18.919Z,17.41
2018-05-31T02:55:46.594Z,17.41
2018-05-31T02:58:14.180Z,17.41
2018-05-31T03:00:41.848Z,17.42
2018-05-31T03:03:09.396Z,17.42
2018-05-31T03:05:36.932Z,17.42
2018-05-31T03:08:04.591Z,17.42
2018-05-31T03:10:32.179Z,17.42
2018-05-31T03:13:00.723Z,17.42
2018-05-31T03:15:28.395Z,17.43
2018-05-31T03:17:56.102Z,17.43
2018-05-31T03:20:23.658Z,17.44
2018-05-31T03:22:51.179Z,17.44
2018-05-31T03:25:18.781Z,17.44
2018-05-31T03:27:46.415Z,17.45
2018-05-31T03:30:14.058Z,17.44
2018-05-31T03:32:41.714Z,17.44
2018-05-31T03:35:09.379Z,17.45
2018-05-31T03:37:36.947Z,17.44
2018-05-31T03:40:04.500Z,17.44
2018-05-31T03:42:32.091Z,17.44
2018-05-31T03:44:59.710Z,17.44
2018-05-31T03:47:27.341Z,17.43
2018-05-31T03:49:56.404Z,17.42
2018-05-31T03:52:24.124Z,17.43
2018-05-31T03:54:51.648Z,17.42
2018-05-31T03:57:19.203Z,17.41
2018-05-31T03:59:46.786Z,17.42
2018-05-31T04:02:14.415Z,17.41
2018-05-31T04:04:42.055Z,17.42
2018-05-31T04:07:09.666Z,17.41
2018-05-31T04:09:37.239Z,17.41
2018-05-31T04:12:04.778Z,17.41
2018-05-31T04:14:32.346Z,17.40
2018-05-31T04:16:59.874Z,17.40
2018-05-31T04:19:27.591Z,17.41
2018-05-31T04:21:55.316Z,17.41
2018-05-31T04:24:22.863Z,17.41
2018-05-31T04:26:50.463Z,17.40
2018-05-31T04:29:18.077Z,17.40
2018-05-31T04:31:45.622Z,17.41
2018-05-31T04:34:13.206Z,17.41
2018-05-31T04:36:40.871Z,17.41
2018-05-31T04:39:08.461Z,17.41
2018-05-31T04:41:36.151Z,17.42
2018-05-31T04:44:05.210Z,17.42
2018-05-31T04:46:32.784Z,17.42
2018-05-31T04:49:00.303Z,17.41
2018-05-31T04:51:27.853Z,17.41
2018-05-31T04:53:55.456Z,17.41
2018-05-31T04:56:23.091Z,17.41
2018-05-31T04:58:50.651Z,17.40
2018-05-31T05:01:18.441Z,17.41
2018-05-31T05:03:46.063Z,17.42
2018-05-31T05:06:13.622Z,17.43
2018-05-31T05:08:41.200Z,17.43
2018-05-31T05:11:08.810Z,17.44
2018-05-31T05:13:36.467Z,17.45
2018-05-31T05:16:04.063Z,17.45
2018-05-31T05:18:31.687Z,17.46
2018-05-31T05:20:59.254Z,17.47
2018-05-31T05:23:26.867Z,17.47
2018-05-31T05:25:54.383Z,17.48
2018-05-31T05:28:22.132Z,17.49
2018-05-31T05:30:49.854Z,17.49
2018-05-31T05:33:17.519Z,17.50
2018-05-31T05:35:46.865Z,17.51
2018-05-31T05:38:14.459Z,17.51
2018-05-31T05:40:42.015Z,17.52
2018-05-31T05:43:09.591Z,17.52
2018-05-31T05:45:37.207Z,17.55
2018-05-31T05:48:04.875Z,17.56
2018-05-31T05:50:32.543Z,17.58
2018-05-31T05:53:00.175Z,17.60
2018-05-31T05:55:27.723Z,17.62
2018-05-31T05:57:55.273Z,17.65
2018-05-31T06:00:22.827Z,17.68
2018-05-31T06:02:50.459Z,17.72
2018-05-31T06:05:18.083Z,17.76
2018-05-31T06:07:45.727Z,17.81
2018-05-31T06:10:13.431Z,17.85
2018-05-31T06:12:40.954Z,17.89
2018-05-31T06:15:08.582Z,17.92
2018-05-31T06:17:36.170Z,17.95
2018-05-31T06:20:06.851Z,17.97
2018-05-31T06:22:34.504Z,17.99
2018-05-31T06:25:02.128Z,18.01
2018-05-31T06:27:29.715Z,18.03
2018-05-31T06:29:57.354Z,18.07
2018-05-31T06:32:24.952Z,18.09
2018-05-31T06:34:52.582Z,18.13
2018-05-31T06:37:20.251Z,18.17
2018-05-31T06:39:48.587Z,18.19
2018-05-31T06:42:17.979Z,18.22
2018-05-31T06:44:46.241Z,18.25
2018-05-31T06:47:13.843Z,18.26
2018-05-31T06:49:41.411Z,18.27
2018-05-31T06:52:08.945Z,18.29
2018-05-31T06:54:37.480Z,18.31
2018-05-31T06:57:05.816Z,18.33
2018-05-31T06:59:34.384Z,18.34
2018-05-31T07:02:01.929Z,18.34
2018-05-31T07:07:22.782Z,18.33
2018-05-31T07:09:50.310Z,18.33
2018-05-31T07:12:17.970Z,18.33
2018-05-31T07:14:45.642Z,18.33
2018-05-31T07:17:17.607Z,18.33
2018-05-31T07:19:46.047Z,18.34
2018-05-31T07:22:13.607Z,18.33
2018-05-31T07:24:41.160Z,18.35
2018-05-31T07:27:08.694Z,18.36
2018-05-31T07:29:36.583Z,18.37
2018-05-31T07:32:04.731Z,18.39
2018-05-31T07:34:33.299Z,18.39
2018-05-31T07:37:03.920Z,18.38
2018-05-31T07:39:31.442Z,18.37
2018-05-31T07:42:00.116Z,18.36
2018-05-31T07:44:27.705Z,18.33
2018-05-31T07:46:55.355Z,18.33
2018-05-31T07:49:25.447Z,18.33
2018-05-31T07:51:54.055Z,18.36
2018-05-31T07:54:21.743Z,18.39
2018-05-31T07:56:49.307Z,18.44
2018-05-31T07:59:16.840Z,18.48
2018-05-31T08:01:44.486Z,18.53
2018-05-31T08:04:12.532Z,18.58
2018-05-31T08:06:40.979Z,18.65
2018-05-31T08:12:08.427Z,18.83
2018-05-31T08:14:49.262Z,18.93
2018-05-31T08:18:59.142Z,19.07
2018-05-31T08:30:35.407Z,19.51
2018-05-31T08:33:02.964Z,19.58
2018-05-31T08:35:31.350Z,19.64
2018-05-31T08:47:07.995Z,19.87
2018-05-31T08:49:35.555Z,19.93
2018-05-31T08:52:03.192Z,19.98
2018-05-31T09:03:39.223Z,20.20
2018-05-31T09:06:06.831Z,20.23
2018-05-31T09:08:34.592Z,20.26
2018-05-31T09:20:12.304Z,20.39
2018-05-31T09:22:39.938Z,20.40
2018-05-31T09:25:07.527Z,20.43
2018-05-31T09:27:35.144Z,20.47
2018-05-31T09:39:14.946Z,20.63
2018-05-31T09:41:42.558Z,20.67
2018-05-31T09:44:10.184Z,20.72
2018-05-31T09:55:47.241Z,20.85
2018-05-31T09:58:15.414Z,20.90
2018-05-31T10:00:43.078Z,20.93
2018-05-31T10:12:19.695Z,21.14
2018-05-31T10:14:47.361Z,21.20
2018-05-31T10:17:14.995Z,21.28
2018-05-31T10:28:50.946Z,21.51
2018-05-31T10:31:18.595Z,21.58
2018-05-31T10:33:46.655Z,21.69
2018-05-31T10:36:14.324Z,21.82
2018-05-31T10:44:21.251Z,22.14
2018-05-31T10:46:48.894Z,22.19
2018-05-31T10:49:19.349Z,22.22
2018-05-31T10:51:46.901Z,22.31
2018-05-31T11:03:25.751Z,22.44
2018-05-31T11:05:53.330Z,22.43
2018-05-31T11:08:20.896Z,22.43
2018-05-31T11:10:48.497Z,22.40
2018-05-31T11:22:20.325Z,22.29
2018-05-31T11:24:47.950Z,22.32
2018-05-31T11:27:15.588Z,22.38
2018-05-31T11:38:51.455Z,22.64
2018-05-31T11:41:19.075Z,22.72
2018-05-31T11:43:48.698Z,22.77
2018-05-31T11:55:13.648Z,22.96
2018-05-31T11:57:41.398Z,23.00
2018-05-31T12:00:09.680Z,23.05
2018-05-31T12:11:45.272Z,23.18
2018-05-31T12:14:12.847Z,23.24
2018-05-31T12:16:40.432Z,23.30
2018-05-31T12:30:57.070Z,23.63
2018-05-31T12:33:24.895Z,23.72
2018-05-31T12:35:52.794Z,23.79
2018-05-31T12:47:27.976Z,23.91
2018-05-31T12:49:55.631Z,23.93
2018-05-31T12:52:23.255Z,23.91
2018-05-31T13:03:59.809Z,23.95
2018-05-31T13:06:27.521Z,24.04
2018-05-31T13:08:55.220Z,24.15
2018-05-31T13:20:32.425Z,24.51
2018-05-31T13:23:02.370Z,24.60
2018-05-31T13:59:08.736Z,25.56
2018-05-31T14:47:25.921Z,23.93
2018-05-31T14:49:53.655Z,23.74
2018-05-31T17:21:53.236Z,21.52
2018-05-31T17:42:28.295Z,21.48
2018-05-31T17:53:41.260Z,21.51
2018-05-31T17:56:08.957Z,21.52
2018-05-31T17:58:36.592Z,21.52
2018-05-31T18:04:06.549Z,21.52
2018-05-31T18:06:49.137Z,21.50
2018-05-31T18:12:19.959Z,21.46
2018-05-31T18:14:47.563Z,21.45
2018-05-31T18:17:15.154Z,21.44
2018-05-31T18:19:42.921Z,21.44
2018-05-31T18:27:32.920Z,21.38
2018-05-31T18:30:00.466Z,21.34
2018-05-31T18:32:28.147Z,21.31
2018-05-31T18:34:55.772Z,21.29
2018-05-31T18:46:29.266Z,21.15
2018-05-31T18:48:56.916Z,21.14
2018-05-31T18:51:24.501Z,21.09
2018-05-31T19:02:38.425Z,20.73
2018-05-31T19:05:06.031Z,20.65
2018-05-31T19:07:33.724Z,20.59
2018-05-31T19:10:02.775Z,20.53
2018-05-31T19:21:20.833Z,20.34
2018-05-31T19:23:48.428Z,20.33
2018-05-31T19:26:16.606Z,20.32
2018-05-31T19:37:59.109Z,20.24
2018-05-31T19:40:33.789Z,20.19
2018-05-31T20:46:40.633Z,19.23
2018-05-31T20:49:08.352Z,19.22
2018-05-31T20:51:35.987Z,19.22
2018-05-31T21:03:13.246Z,19.21
2018-05-31T21:05:40.819Z,19.21
2018-05-31T21:19:51.273Z,19.16
2018-05-31T21:22:18.833Z,19.18
2018-05-31T21:24:46.471Z,19.18
2018-05-31T21:27:14.450Z,19.18
2018-05-31T21:38:51.331Z,19.19
2018-05-31T21:41:19.032Z,19.20
2018-05-31T21:43:46.639Z,19.20
2018-05-31T21:55:22.751Z,19.20
2018-05-31T21:57:50.366Z,19.21
2018-05-31T22:00:29.830Z,19.22
2018-05-31T22:12:06.407Z,19.23
2018-05-31T22:14:34.172Z,19.23
2018-05-31T22:17:01.729Z,19.22
2018-05-31T22:28:48.990Z,19.19
2018-05-31T22:31:16.617Z,19.18
2018-05-31T22:33:46.485Z,19.18
2018-05-31T22:45:26.369Z,19.11
2018-05-31T22:47:54.783Z,19.10
2018-05-31T22:50:22.415Z,19.07
2018-05-31T22:52:50.911Z,19.04
2018-05-31T22:57:58.214Z,18.99
2018-05-31T23:05:40.451Z,18.96
2018-05-31T23:08:08.090Z,18.95
2018-05-31T23:10:35.732Z,18.95
2018-05-31T23:21:10.232Z,18.90
2018-05-31T23:23:37.803Z,18.91
2018-05-31T23:26:05.374Z,18.92
2018-05-31T23:37:36.780Z,18.89
2018-05-31T23:40:04.369Z,18.89
2018-05-31T23:42:32.010Z,18.88
2018-05-31T23:44:59.648Z,18.87
2018-05-31T23:47:29.931Z,18.85
2018-05-31T23:55:36.078Z,18.77
2018-05-31T23:58:03.687Z,18.77
